Aviation Digital Data Service (ADDS)

Output produced by METARs form (1631 UTC 19 October 2017)
found at http://aviationweather.gov/adds/metars/
 
METAR text: EDTY 191620Z VRB02KT CAVOK 18/10 Q1014
Conditions at: EDTY (SCHWAEBISCH HALL, DE) observed 1620 UTC 19 October 2017
Temperature: 18.0°C (64°F)
Dewpoint: 10.0°C (50°F) [RH = 59%]
Pressure (altimeter): 29.94 inches Hg (1014.0 mb)
Winds: variable direction winds at 2 MPH (2 knots; 1.0 m/s)
Visibility: 6 or more miles (10+ km)
Ceiling: ceiling and visibility are OK
Clouds: unknown
Weather: no significant weather observed at this time

Forecast for: EDTY (SCHWAEBISCH HALL, DE)
Text: TAF EDTY 191400Z 1915/1924 VRB03KT CAVOK
Forecast period: 1500 UTC 19 October 2017 to 0000 UTC 20 October 2017
Forecast type: FROM: standard forecast or significant change
Winds: variable direction winds at 3 MPH (3 knots; 1.6 m/s)
Visibility: 6 or more miles (10+ km)
Clouds: not forecast
Weather: NSW  (no significant weather)